AirNav   Phillips 66 Aviation Fuel
 
 1009 users online  

37TX Yates Field Airport
San Saba, Texas, USA


FAA INFORMATION EFFECTIVE 12 OCTOBER 2017

Location

FAA Identifier: 37TX
Lat/Long: 31-19-17.5950N / 098-51-56.1650W
31-19.293250N / 098-51.936083W
31.3215542 / -98.8656014
(estimated)
Elevation: 1418 ft. / 432 m (estimated)
Variation: 08E (1985)
From city: 10 miles NW of SAN SABA, TX
Time zone: UTC -5 (UTC -6 during Standard Time)
Zip code: 76877

Airport Operations

Airport use: Private use. Permission required prior to landing
Activation date: 11/1990
Control tower: no
ARTCC: HOUSTON CENTER
FSS: SAN ANGELO FLIGHT SERVICE STATION
Attendance: UNATNDD
Wind indicator: yes
Segmented circle: no

Airport Communications

WX AWOS-3 at 81R (9 nm SE): PHONE 325-372-6027

Nearby radio navigation aids

VOR radial/distance  VOR name  Freq  Var
LLOr345/31.8LLANO VORTAC108.2008E
BWDr164/34.6BROWNWOOD VOR/DME108.6008E
AGJr277/38.0GOOCH SPRINGS VORTAC112.5005E

 
NDB name  Hdg/Dist  Freq  Var  ID
BRADY063/25.038007EBBD -... -... -..

Airport Services

Runway Information

Runway 4/22

Dimensions: 2200 x 100 ft. / 671 x 30 m
Surface: turf
Runway edge markings: 04/22 MARKED WITH PVC POSTS.
RUNWAY 4  RUNWAY 22
Latitude: 31-19.206333N31-19.380333N
Longitude: 098-52.121333W098-51.750500W
Elevation: 1391.0 ft.1418.0 ft.
Traffic pattern: leftleft
Runway heading: 053 magnetic, 061 true233 magnetic, 241 true

Airport Ownership and Management from official FAA records

Ownership: Privately-owned
Owner: H W YATES
PO BOX 1427
BAYTOWN, TX 77522
Phone 713-758-5221
Manager: H W YATES
PO BOX 1427
BAYTOWN, TX 77522
Phone 713-758-5221

Airport Operational Statistics

Aircraft based on the field: 1
Single engine airplanes: 1
    

Additional Remarks

WILDLIFE CROSSINGS ON RY.

Instrument Procedures

There are no published instrument procedures at 37TX.

Some nearby airports with instrument procedures:

KBBD - Curtis Field Airport (25 nm W)
KBWD - Brownwood Regional Airport (29 nm N)
KAQO - Llano Municipal Airport (34 nm S)
KLZZ - Lampasas Airport (37 nm E)
KMKN - Comanche County-City Airport (38 nm N)
 
Loc | Ops | Rwys | IFR | FBO | Links
Com | Nav | Svcs | Stats | Notes


 
Area around 37TX (Yates Field Airport)
 
Road maps at: MapQuest Bing Google
 
Aerial photo
No photo
 
Sectional chart

 
Airport distance calculator
Flying to Yates Field Airport? Find the distance to fly.

From to 37TX

Sunrise and sunset
Times for 16-Oct-2017
 Local
(UTC-5)
 Zulu
(UTC)
Morning civil twilight07:1612:16
Sunrise07:4012:40
Sunset19:0200:02
Evening civil twilight19:2600:26

Current date and time
Zulu (UTC)  16-Oct-2017 23:37:38
Local (UTC-5)  16-Oct-2017 18:37:38
 
METAR
KBWD 
29nm N 
162315Z AUTO 06006KT 7SM CLR 22/00 A3028 RMK AO2
KAQO 
34nm S 
162315Z AUTO 02005KT 10SM CLR 23/00 A3029 RMK AO2
KLZZ 
37nm E 
162315Z AUTO 36004KT 10SM CLR 22/04 A3026 RMK AO2 T02150035
KMKN 
38nm N 
162315Z AUTO 00000KT 10SM CLR 21/03 A3028 RMK AO2 T02080026
KCOM 
42nm NW 
162315Z AUTO 00000KT 10SM CLR 22/00 A3029 RMK AO2 T02200001
KMNZ 
42nm NE 
162315Z AUTO 04005KT 10SM CLR 22/02 A3028 RMK AO2 T02150017
KBMQ 
48nm SE 
162253Z AUTO 01008KT 10SM CLR 23/02 A3028 RMK AO2 SLP243 T02330017
TAF
KBBD 
25nm W 
161720Z 1618/1718 35007KT P6SM SKC FM170000 VRB03KT P6SM SKC AMD NOT SKED
NOTAMs
Click for the latest NOTAMs
NOTAMs are issued by the DoD/FAA and will open in a separate window not controlled by AirNav.

 

 
 

Would you like to see your business listed on this page?

 If your business provides an interesting product or service to pilots, flight crews, aircraft, or users of the Yates Field Airport, you should consider listing it here.  To start the listing process, click on the button below
 
Add a business
 

Other Pages about Yates Field Airport

Update a link
 
Copyright © AirNav, LLC. All rights reserved. Privacy Policy  Contact